sensor_id;sensor_type;location;lat;lon;timestamp;pressure;altitude;pressure_sealevel;temperature;humidity
42001;BME280;27689;48.390;10.856;2023-03-01T00:01:38;96735.34;;;0.86;84.68
42001;BME280;27689;48.390;10.856;2023-03-01T00:04:23;96729.28;;;0.87;84.69
42001;BME280;27689;48.390;10.856;2023-03-01T00:07:07;96726.75;;;0.85;84.33
42001;BME280;27689;48.390;10.856;2023-03-01T00:09:51;96724.94;;;0.87;84.54
42001;BME280;27689;48.390;10.856;2023-03-01T00:12:35;96723.03;;;0.91;84.53
42001;BME280;27689;48.390;10.856;2023-03-01T00:15:20;96712.78;;;0.89;84.43
42001;BME280;27689;48.390;10.856;2023-03-01T00:18:04;96717.94;;;0.89;84.34
42001;BME280;27689;48.390;10.856;2023-03-01T00:20:52;96711.75;;;0.93;84.42
42001;BME280;27689;48.390;10.856;2023-03-01T00:23:37;96707.50;;;0.92;84.22
42001;BME280;27689;48.390;10.856;2023-03-01T00:26:22;96712.59;;;0.94;84.52
42001;BME280;27689;48.390;10.856;2023-03-01T00:29:06;96716.13;;;0.91;84.50
42001;BME280;27689;48.390;10.856;2023-03-01T00:31:51;96704.91;;;0.92;84.44
42001;BME280;27689;48.390;10.856;2023-03-01T00:34:35;96708.31;;;0.93;84.64
42001;BME280;27689;48.390;10.856;2023-03-01T00:37:23;96700.38;;;0.97;83.94
42001;BME280;27689;48.390;10.856;2023-03-01T00:40:07;96689.38;;;0.94;84.75
42001;BME280;27689;48.390;10.856;2023-03-01T00:42:52;96693.69;;;0.93;84.29
42001;BME280;27689;48.390;10.856;2023-03-01T00:45:36;96695.22;;;0.97;84.24
42001;BME280;27689;48.390;10.856;2023-03-01T00:48:20;96695.91;;;1.01;83.59
42001;BME280;27689;48.390;10.856;2023-03-01T00:51:12;96688.84;;;1.04;83.43
42001;BME280;27689;48.390;10.856;2023-03-01T00:53:59;96683.53;;;1.08;83.19
42001;BME280;27689;48.390;10.856;2023-03-01T00:56:44;96685.41;;;1.04;83.57
42001;BME280;27689;48.390;10.856;2023-03-01T00:59:28;96687.03;;;1.06;83.47
42001;BME280;27689;48.390;10.856;2023-03-01T01:02:12;96679.34;;;1.05;83.62
42001;BME280;27689;48.390;10.856;2023-03-01T01:04:57;96678.91;;;0.97;84.41
42001;BME280;27689;48.390;10.856;2023-03-01T01:07:42;96670.72;;;0.89;84.86
42001;BME280;27689;48.390;10.856;2023-03-01T01:10:27;96671.38;;;0.92;84.94
42001;BME280;27689;48.390;10.856;2023-03-01T01:13:11;96661.91;;;0.93;84.51
42001;BME280;27689;48.390;10.856;2023-03-01T01:16:01;96664.41;;;0.94;84.44
42001;BME280;27689;48.390;10.856;2023-03-01T01:18:47;96664.97;;;1.01;83.97
42001;BME280;27689;48.390;10.856;2023-03-01T01:21:32;96655.22;;;1.06;83.37
42001;BME280;27689;48.390;10.856;2023-03-01T01:24:17;96652.81;;;1.03;83.91
42001;BME280;27689;48.390;10.856;2023-03-01T01:27:01;96656.44;;;0.99;84.07
42001;BME280;27689;48.390;10.856;2023-03-01T01:29:46;96658.81;;;1.03;83.21
42001;BME280;27689;48.390;10.856;2023-03-01T01:32:33;96647.19;;;0.95;84.40
42001;BME280;27689;48.390;10.856;2023-03-01T01:35:17;96647.41;;;0.90;84.13
42001;BME280;27689;48.390;10.856;2023-03-01T01:38:01;96641.88;;;0.98;83.54
42001;BME280;27689;48.390;10.856;2023-03-01T01:40:52;96638.94;;;0.88;83.72
42001;BME280;27689;48.390;10.856;2023-03-01T01:43:44;96637.69;;;0.78;85.15
42001;BME280;27689;48.390;10.856;2023-03-01T01:46:32;96638.66;;;0.76;84.98
42001;BME280;27689;48.390;10.856;2023-03-01T01:49:56;96648.97;;;0.76;85.35
42001;BME280;27689;48.390;10.856;2023-03-01T01:52:42;96619.63;;;0.61;85.35
42001;BME280;27689;48.390;10.856;2023-03-01T01:55:29;96627.91;;;0.67;85.24
42001;BME280;27689;48.390;10.856;2023-03-01T01:58:17;96638.78;;;0.74;85.12
42001;BME280;27689;48.390;10.856;2023-03-01T02:01:03;96639.81;;;0.70;85.36
42001;BME280;27689;48.390;10.856;2023-03-01T02:03:51;96639.13;;;0.66;85.98
42001;BME280;27689;48.390;10.856;2023-03-01T02:06:45;96623.28;;;0.57;85.46
42001;BME280;27689;48.390;10.856;2023-03-01T02:09:34;96643.81;;;0.76;85.03
42001;BME280;27689;48.390;10.856;2023-03-01T02:12:10;96631.03;;;0.74;85.48
42001;BME280;27689;48.390;10.856;2023-03-01T02:14:54;96626.69;;;0.75;85.13
42001;BME280;27689;48.390;10.856;2023-03-01T02:17:39;96626.16;;;0.68;85.83
42001;BME280;27689;48.390;10.856;2023-03-01T02:20:34;96619.72;;;0.77;85.43
42001;BME280;27689;48.390;10.856;2023-03-01T02:23:19;96630.84;;;0.77;85.52
42001;BME280;27689;48.390;10.856;2023-03-01T02:29:21;96631.84;;;0.75;85.59
42001;BME280;27689;48.390;10.856;2023-03-01T02:32:06;96620.16;;;0.67;86.10
42001;BME280;27689;48.390;10.856;2023-03-01T02:34:54;96613.28;;;0.68;85.75
42001;BME280;27689;48.390;10.856;2023-03-01T02:37:41;96611.22;;;0.75;85.05
42001;BME280;27689;48.390;10.856;2023-03-01T02:40:28;96615.47;;;0.58;86.45
42001;BME280;27689;48.390;10.856;2023-03-01T02:43:16;96616.38;;;0.57;86.75
42001;BME280;27689;48.390;10.856;2023-03-01T02:46:14;96621.00;;;0.68;86.06
42001;BME280;27689;48.390;10.856;2023-03-01T02:49:01;96616.19;;;0.60;86.04
42001;BME280;27689;48.390;10.856;2023-03-01T02:51:48;96616.91;;;0.64;86.06
42001;BME280;27689;48.390;10.856;2023-03-01T02:54:41;96611.97;;;0.59;86.27
42001;BME280;27689;48.390;10.856;2023-03-01T02:57:29;96615.22;;;0.63;85.73
42001;BME280;27689;48.390;10.856;2023-03-01T03:00:18;96613.09;;;0.54;86.69
42001;BME280;27689;48.390;10.856;2023-03-01T03:03:03;96602.16;;;0.49;86.75
42001;BME280;27689;48.390;10.856;2023-03-01T03:05:47;96603.06;;;0.48;86.37
42001;BME280;27689;48.390;10.856;2023-03-01T03:08:32;96598.53;;;0.53;85.99
42001;BME280;27689;48.390;10.856;2023-03-01T03:11:17;96596.25;;;0.47;85.43
42001;BME280;27689;48.390;10.856;2023-03-01T03:14:01;96594.28;;;0.52;85.00
42001;BME280;27689;48.390;10.856;2023-03-01T03:16:52;96597.91;;;0.48;85.41
42001;BME280;27689;48.390;10.856;2023-03-01T03:19:37;96596.25;;;0.47;85.63
42001;BME280;27689;48.390;10.856;2023-03-01T03:22:21;96594.81;;;0.41;86.15
42001;BME280;27689;48.390;10.856;2023-03-01T03:25:11;96593.84;;;0.44;86.25
42001;BME280;27689;48.390;10.856;2023-03-01T03:27:59;96587.00;;;0.43;85.92
42001;BME280;27689;48.390;10.856;2023-03-01T03:30:43;96591.78;;;0.50;85.28
42001;BME280;27689;48.390;10.856;2023-03-01T03:33:27;96588.50;;;0.47;84.96
42001;BME280;27689;48.390;10.856;2023-03-01T03:36:04;96586.13;;;0.44;85.23
42001;BME280;27689;48.390;10.856;2023-03-01T03:38:48;96586.13;;;0.44;85.33
42001;BME280;27689;48.390;10.856;2023-03-01T03:41:36;96599.00;;;0.44;85.49
42001;BME280;27689;48.390;10.856;2023-03-01T03:44:20;96593.97;;;0.41;85.87
42001;BME280;27689;48.390;10.856;2023-03-01T03:47:05;96588.84;;;0.41;85.44
42001;BME280;27689;48.390;10.856;2023-03-01T03:49:49;96588.06;;;0.39;85.62
42001;BME280;27689;48.390;10.856;2023-03-01T03:52:34;96587.31;;;0.37;85.63
42001;BME280;27689;48.390;10.856;2023-03-01T03:55:18;96579.00;;;0.30;85.79
42001;BME280;27689;48.390;10.856;2023-03-01T03:58:06;96582.84;;;0.40;85.49
42001;BME280;27689;48.390;10.856;2023-03-01T04:00:53;96576.22;;;0.34;85.73
42001;BME280;27689;48.390;10.856;2023-03-01T04:03:40;96568.41;;;0.36;85.73
42001;BME280;27689;48.390;10.856;2023-03-01T04:06:25;96570.25;;;0.34;85.80
42001;BME280;27689;48.390;10.856;2023-03-01T04:09:14;96575.25;;;0.37;85.89
42001;BME280;27689;48.390;10.856;2023-03-01T04:12:19;96577.97;;;0.34;86.24
42001;BME280;27689;48.390;10.856;2023-03-01T04:15:07;96572.75;;;0.35;85.79
42001;BME280;27689;48.390;10.856;2023-03-01T04:17:59;96563.28;;;0.36;85.63
42001;BME280;27689;48.390;10.856;2023-03-01T04:20:44;96556.44;;;0.35;85.48
42001;BME280;27689;48.390;10.856;2023-03-01T04:23:29;96557.28;;;0.35;85.80
42001;BME280;27689;48.390;10.856;2023-03-01T04:26:14;96542.94;;;0.30;85.58
42001;BME280;27689;48.390;10.856;2023-03-01T04:28:59;96550.16;;;0.41;84.49
42001;BME280;27689;48.390;10.856;2023-03-01T04:31:43;96549.34;;;0.40;85.10
42001;BME280;27689;48.390;10.856;2023-03-01T04:34:27;96558.75;;;0.41;84.18
42001;BME280;27689;48.390;10.856;2023-03-01T04:37:16;96545.63;;;0.28;85.13
42001;BME280;27689;48.390;10.856;2023-03-01T04:40:06;96556.31;;;0.38;84.12
42001;BME280;27689;48.390;10.856;2023-03-01T04:43:02;96558.31;;;0.31;84.79
42001;BME280;27689;48.390;10.856;2023-03-01T04:45:50;96542.41;;;0.23;84.97
42001;BME280;27689;48.390;10.856;2023-03-01T04:48:39;96549.16;;;0.26;84.38
42001;BME280;27689;48.390;10.856;2023-03-01T04:51:29;96548.53;;;0.21;84.75
42001;BME280;27689;48.390;10.856;2023-03-01T04:54:16;96556.34;;;0.19;84.43
42001;BME280;27689;48.390;10.856;2023-03-01T04:57:08;96550.50;;;0.16;84.33
42001;BME280;27689;48.390;10.856;2023-03-01T05:00:05;96547.09;;;0.15;84.70
42001;BME280;27689;48.390;10.856;2023-03-01T05:03:03;96545.66;;;0.10;84.52
42001;BME280;27689;48.390;10.856;2023-03-01T05:05:58;96556.31;;;0.02;84.95
42001;BME280;27689;48.390;10.856;2023-03-01T05:08:51;96546.75;;;0.04;84.73
42001;BME280;27689;48.390;10.856;2023-03-01T05:11:41;96546.31;;;-0.04;84.63
42001;BME280;27689;48.390;10.856;2023-03-01T05:14:25;96546.72;;;-0.13;85.02
42001;BME280;27689;48.390;10.856;2023-03-01T05:17:19;96542.78;;;-0.20;85.49
42001;BME280;27689;48.390;10.856;2023-03-01T05:20:07;96549.72;;;-0.22;85.55
42001;BME280;27689;48.390;10.856;2023-03-01T05:22:56;96553.00;;;-0.38;86.28
42001;BME280;27689;48.390;10.856;2023-03-01T05:25:41;96542.78;;;-0.39;85.76
42001;BME280;27689;48.390;10.856;2023-03-01T05:28:29;96548.28;;;-0.47;86.18
42001;BME280;27689;48.390;10.856;2023-03-01T05:31:13;96551.81;;;-0.49;86.64
42001;BME280;27689;48.390;10.856;2023-03-01T05:33:57;96538.50;;;-0.59;86.72
42001;BME280;27689;48.390;10.856;2023-03-01T05:36:52;96544.72;;;-0.63;87.13
42001;BME280;27689;48.390;10.856;2023-03-01T05:39:39;96541.50;;;-0.68;87.81
42001;BME280;27689;48.390;10.856;2023-03-01T05:42:23;96542.47;;;-0.71;87.56
42001;BME280;27689;48.390;10.856;2023-03-01T05:45:08;96551.16;;;-0.73;87.82
42001;BME280;27689;48.390;10.856;2023-03-01T05:47:53;96541.28;;;-0.82;88.19
42001;BME280;27689;48.390;10.856;2023-03-01T05:50:43;96544.75;;;-0.83;88.28
42001;BME280;27689;48.390;10.856;2023-03-01T05:53:27;96544.56;;;-0.79;87.70
42001;BME280;27689;48.390;10.856;2023-03-01T05:56:11;96550.09;;;-0.88;88.19
42001;BME280;27689;48.390;10.856;2023-03-01T05:58:55;96559.69;;;-0.91;88.77
42001;BME280;27689;48.390;10.856;2023-03-01T06:01:39;96562.72;;;-1.02;89.31
42001;BME280;27689;48.390;10.856;2023-03-01T06:04:23;96557.13;;;-1.12;89.68
42001;BME280;27689;48.390;10.856;2023-03-01T06:07:07;96551.88;;;-1.09;89.35
42001;BME280;27689;48.390;10.856;2023-03-01T06:09:51;96551.22;;;-1.14;89.65
42001;BME280;27689;48.390;10.856;2023-03-01T06:12:37;96559.66;;;-1.10;89.47
42001;BME280;27689;48.390;10.856;2023-03-01T06:15:22;96555.28;;;-1.08;89.48
42001;BME280;27689;48.390;10.856;2023-03-01T06:18:05;96566.41;;;-1.08;89.30
42001;BME280;27689;48.390;10.856;2023-03-01T06:20:54;96552.19;;;-1.16;89.92
42001;BME280;27689;48.390;10.856;2023-03-01T06:23:38;96564.91;;;-1.13;89.84
42001;BME280;27689;48.390;10.856;2023-03-01T06:26:22;96566.53;;;-1.11;89.74
42001;BME280;27689;48.390;10.856;2023-03-01T06:29:06;96564.84;;;-1.12;89.95
42001;BME280;27689;48.390;10.856;2023-03-01T06:31:50;96572.81;;;-1.18;90.28
42001;BME280;27689;48.390;10.856;2023-03-01T06:34:34;96567.59;;;-1.16;90.19
42001;BME280;27689;48.390;10.856;2023-03-01T06:37:18;96571.66;;;-1.11;89.70
42001;BME280;27689;48.390;10.856;2023-03-01T06:40:03;96565.69;;;-1.11;90.06
42001;BME280;27689;48.390;10.856;2023-03-01T06:42:51;96565.22;;;-1.00;90.19
42001;BME280;27689;48.390;10.856;2023-03-01T06:45:36;96571.53;;;-1.08;91.02
42001;BME280;27689;48.390;10.856;2023-03-01T06:48:20;96574.88;;;-1.05;90.89
42001;BME280;27689;48.390;10.856;2023-03-01T06:51:04;96568.19;;;-1.10;91.78
42001;BME280;27689;48.390;10.856;2023-03-01T06:53:48;96563.44;;;-0.98;90.65
42001;BME280;27689;48.390;10.856;2023-03-01T06:56:32;96565.75;;;-0.92;90.44
42001;BME280;27689;48.390;10.856;2023-03-01T06:59:18;96567.47;;;-0.93;90.82
42001;BME280;27689;48.390;10.856;2023-03-01T07:02:02;96559.84;;;-0.94;91.23
42001;BME280;27689;48.390;10.856;2023-03-01T07:04:46;96558.72;;;-0.89;90.73
42001;BME280;27689;48.390;10.856;2023-03-01T07:07:31;96550.69;;;-0.81;89.91
42001;BME280;27689;48.390;10.856;2023-03-01T07:10:16;96553.97;;;-0.78;90.55
42001;BME280;27689;48.390;10.856;2023-03-01T07:13:00;96562.44;;;-0.76;90.91
42001;BME280;27689;48.390;10.856;2023-03-01T07:15:44;96553.13;;;-0.78;91.07
42001;BME280;27689;48.390;10.856;2023-03-01T07:18:28;96550.06;;;-0.67;90.57
42001;BME280;27689;48.390;10.856;2023-03-01T07:21:13;96552.31;;;-0.60;89.46
42001;BME280;27689;48.390;10.856;2023-03-01T07:23:58;96547.97;;;-0.59;89.68
42001;BME280;27689;48.390;10.856;2023-03-01T07:26:42;96542.09;;;-0.61;90.45
42001;BME280;27689;48.390;10.856;2023-03-01T07:29:26;96539.16;;;-0.54;90.75
42001;BME280;27689;48.390;10.856;2023-03-01T07:32:10;96535.47;;;-0.48;90.20
42001;BME280;27689;48.390;10.856;2023-03-01T07:34:54;96542.06;;;-0.43;89.79
42001;BME280;27689;48.390;10.856;2023-03-01T07:37:38;96537.50;;;-0.36;89.75
42001;BME280;27689;48.390;10.856;2023-03-01T07:40:22;96532.88;;;-0.29;89.36
42001;BME280;27689;48.390;10.856;2023-03-01T07:43:06;96534.34;;;-0.24;88.76
42001;BME280;27689;48.390;10.856;2023-03-01T07:45:50;96527.19;;;-0.17;88.26
42001;BME280;27689;48.390;10.856;2023-03-01T07:48:34;96522.72;;;-0.14;88.51
42001;BME280;27689;48.390;10.856;2023-03-01T07:51:18;96523.28;;;-0.07;87.34
42001;BME280;27689;48.390;10.856;2023-03-01T07:54:02;96525.31;;;0.04;87.19
42001;BME280;27689;48.390;10.856;2023-03-01T07:56:46;96514.19;;;0.03;86.55
42001;BME280;27689;48.390;10.856;2023-03-01T07:59:30;96512.69;;;0.16;86.37
42001;BME280;27689;48.390;10.856;2023-03-01T08:02:14;96506.41;;;0.22;86.53
42001;BME280;27689;48.390;10.856;2023-03-01T08:04:58;96508.41;;;0.34;85.12
42001;BME280;27689;48.390;10.856;2023-03-01T08:07:42;96511.03;;;0.32;84.19
42001;BME280;27689;48.390;10.856;2023-03-01T08:10:26;96505.75;;;0.35;84.72
42001;BME280;27689;48.390;10.856;2023-03-01T08:13:10;96506.72;;;0.33;83.31
42001;BME280;27689;48.390;10.856;2023-03-01T08:15:59;96510.44;;;0.45;83.60
42001;BME280;27689;48.390;10.856;2023-03-01T08:18:44;96511.66;;;0.38;82.39
42001;BME280;27689;48.390;10.856;2023-03-01T08:21:28;96506.28;;;0.42;83.10
42001;BME280;27689;48.390;10.856;2023-03-01T08:24:12;96509.31;;;0.50;82.90
42001;BME280;27689;48.390;10.856;2023-03-01T08:26:56;96509.16;;;0.53;83.30
42001;BME280;27689;48.390;10.856;2023-03-01T08:29:41;96507.09;;;0.60;82.56
42001;BME280;27689;48.390;10.856;2023-03-01T08:32:24;96514.09;;;0.58;81.67
42001;BME280;27689;48.390;10.856;2023-03-01T08:35:09;96510.00;;;0.71;82.40
42001;BME280;27689;48.390;10.856;2023-03-01T08:37:53;96515.16;;;0.71;80.69
42001;BME280;27689;48.390;10.856;2023-03-01T08:40:37;96513.69;;;0.83;81.72
42001;BME280;27689;48.390;10.856;2023-03-01T08:43:21;96507.69;;;0.82;80.21
42001;BME280;27689;48.390;10.856;2023-03-01T08:46:09;96503.16;;;0.87;80.52
42001;BME280;27689;48.390;10.856;2023-03-01T08:48:53;96494.66;;;0.85;80.30
42001;BME280;27689;48.390;10.856;2023-03-01T08:51:38;96499.28;;;0.61;78.94
42001;BME280;27689;48.390;10.856;2023-03-01T08:54:22;96502.19;;;0.73;78.84
42001;BME280;27689;48.390;10.856;2023-03-01T08:57:05;96486.84;;;0.87;80.41
42001;BME280;27689;48.390;10.856;2023-03-01T08:59:49;96487.81;;;1.01;79.22
42001;BME280;27689;48.390;10.856;2023-03-01T09:02:33;96489.84;;;0.95;77.80
42001;BME280;27689;48.390;10.856;2023-03-01T09:05:17;96495.19;;;1.08;78.13
42001;BME280;27689;48.390;10.856;2023-03-01T09:08:01;96486.91;;;1.18;79.44
42001;BME280;27689;48.390;10.856;2023-03-01T09:10:45;96488.47;;;1.21;77.47
42001;BME280;27689;48.390;10.856;2023-03-01T09:13:30;96487.41;;;1.25;75.96
42001;BME280;27689;48.390;10.856;2023-03-01T09:16:19;96485.84;;;1.38;77.42
42001;BME280;27689;48.390;10.856;2023-03-01T09:19:04;96482.28;;;1.56;77.26
42001;BME280;27689;48.390;10.856;2023-03-01T09:21:48;96477.44;;;1.66;77.41
42001;BME280;27689;48.390;10.856;2023-03-01T09:24:36;96477.03;;;1.73;76.38
42001;BME280;27689;48.390;10.856;2023-03-01T09:27:20;96475.75;;;1.81;76.78
42001;BME280;27689;48.390;10.856;2023-03-01T09:30:04;96465.84;;;1.89;76.00
42001;BME280;27689;48.390;10.856;2023-03-01T09:32:48;96462.19;;;1.93;73.99
42001;BME280;27689;48.390;10.856;2023-03-01T09:35:32;96473.00;;;1.99;75.57
42001;BME280;27689;48.390;10.856;2023-03-01T09:38:16;96477.72;;;1.77;73.86
42001;BME280;27689;48.390;10.856;2023-03-01T09:41:00;96475.13;;;1.93;73.98
42001;BME280;27689;48.390;10.856;2023-03-01T09:43:48;96470.16;;;2.04;73.69
42001;BME280;27689;48.390;10.856;2023-03-01T09:46:42;96454.13;;;2.43;73.33
42001;BME280;27689;48.390;10.856;2023-03-01T09:49:35;96458.81;;;2.80;71.34
42001;BME280;27689;48.390;10.856;2023-03-01T09:52:30;96451.06;;;2.95;70.65
42001;BME280;27689;48.390;10.856;2023-03-01T09:55:55;96444.84;;;3.40;71.14
42001;BME280;27689;48.390;10.856;2023-03-01T09:58:56;96436.69;;;3.46;69.78
42001;BME280;27689;48.390;10.856;2023-03-01T10:02:11;96442.47;;;3.90;70.18
42001;BME280;27689;48.390;10.856;2023-03-01T10:08:30;96428.00;;;4.40;66.89
42001;BME280;27689;48.390;10.856;2023-03-01T10:11:26;96423.75;;;4.77;68.14
42001;BME280;27689;48.390;10.856;2023-03-01T10:20:24;96416.41;;;4.96;67.04
42001;BME280;27689;48.390;10.856;2023-03-01T10:23:08;96408.16;;;5.28;64.08
42001;BME280;27689;48.390;10.856;2023-03-01T10:29:06;96406.44;;;5.40;62.50
42001;BME280;27689;48.390;10.856;2023-03-01T10:31:54;96406.50;;;5.51;62.14
42001;BME280;27689;48.390;10.856;2023-03-01T10:34:38;96399.50;;;5.40;62.88
42001;BME280;27689;48.390;10.856;2023-03-01T10:37:22;96410.47;;;5.56;60.35
42001;BME280;27689;48.390;10.856;2023-03-01T10:40:09;96393.94;;;5.81;60.90
42001;BME280;27689;48.390;10.856;2023-03-01T10:42:57;96384.78;;;6.23;62.37
42001;BME280;27689;48.390;10.856;2023-03-01T10:45:42;96375.09;;;6.25;58.71
42001;BME280;27689;48.390;10.856;2023-03-01T10:48:27;96375.09;;;6.25;58.39
42001;BME280;27689;48.390;10.856;2023-03-01T10:51:14;96361.31;;;6.36;58.75
42001;BME280;27689;48.390;10.856;2023-03-01T10:54:01;96373.09;;;6.29;57.18
42001;BME280;27689;48.390;10.856;2023-03-01T10:56:51;96372.78;;;6.45;59.15
42001;BME280;27689;48.390;10.856;2023-03-01T10:59:38;96365.38;;;6.73;58.73
42001;BME280;27689;48.390;10.856;2023-03-01T11:02:28;96371.00;;;5.99;56.97
42001;BME280;27689;48.390;10.856;2023-03-01T11:05:16;96369.47;;;6.54;59.92
42001;BME280;27689;48.390;10.856;2023-03-01T11:08:03;96359.22;;;6.86;58.62
42001;BME280;27689;48.390;10.856;2023-03-01T11:10:47;96354.16;;;7.06;58.02
42001;BME280;27689;48.390;10.856;2023-03-01T11:17:12;96341.38;;;6.81;55.78
42001;BME280;27689;48.390;10.856;2023-03-01T11:20:41;96338.06;;;6.79;56.45
42001;BME280;27689;48.390;10.856;2023-03-01T11:23:25;96334.34;;;6.37;56.05
42001;BME280;27689;48.390;10.856;2023-03-01T11:26:12;96332.63;;;6.82;57.73
42001;BME280;27689;48.390;10.856;2023-03-01T11:28:58;96331.66;;;6.83;58.60
42001;BME280;27689;48.390;10.856;2023-03-01T11:31:44;96311.16;;;7.23;57.51
42001;BME280;27689;48.390;10.856;2023-03-01T11:34:39;96314.97;;;6.97;54.74
42001;BME280;27689;48.390;10.856;2023-03-01T11:38:05;96310.66;;;7.18;55.17
42001;BME280;27689;48.390;10.856;2023-03-01T11:41:01;96302.94;;;7.28;54.79
42001;BME280;27689;48.390;10.856;2023-03-01T11:43:58;96287.66;;;7.34;55.60
42001;BME280;27689;48.390;10.856;2023-03-01T11:59:45;96273.25;;;7.83;55.52
42001;BME280;27689;48.390;10.856;2023-03-01T12:05:18;96262.81;;;7.83;53.69
42001;BME280;27689;48.390;10.856;2023-03-01T12:11:11;96245.06;;;8.19;53.59
42001;BME280;27689;48.390;10.856;2023-03-01T12:17:46;96236.41;;;8.18;52.70
42001;BME280;27689;48.390;10.856;2023-03-01T12:20:58;96233.72;;;8.50;53.79
42001;BME280;27689;48.390;10.856;2023-03-01T12:23:57;96221.56;;;8.70;53.89
42001;BME280;27689;48.390;10.856;2023-03-01T12:33:06;96225.66;;;9.22;52.04
42001;BME280;27689;48.390;10.856;2023-03-01T12:39:25;96213.34;;;8.84;51.63
42001;BME280;27689;48.390;10.856;2023-03-01T12:42:36;96192.94;;;9.18;52.68
42001;BME280;27689;48.390;10.856;2023-03-01T12:51:19;96201.59;;;9.38;52.24
42001;BME280;27689;48.390;10.856;2023-03-01T12:54:15;96203.38;;;9.57;52.04
42001;BME280;27689;48.390;10.856;2023-03-01T12:57:08;96189.72;;;9.82;51.46
42001;BME280;27689;48.390;10.856;2023-03-01T13:03:02;96201.28;;;9.89;49.03
42001;BME280;27689;48.390;10.856;2023-03-01T13:08:58;96193.16;;;9.92;50.07
42001;BME280;27689;48.390;10.856;2023-03-01T13:11:44;96177.31;;;9.84;50.56
42001;BME280;27689;48.390;10.856;2023-03-01T13:17:33;96178.31;;;9.73;48.55
42001;BME280;27689;48.390;10.856;2023-03-01T13:20:20;96184.09;;;9.67;49.55
42001;BME280;27689;48.390;10.856;2023-03-01T13:23:08;96182.28;;;9.87;50.47
42001;BME280;27689;48.390;10.856;2023-03-01T13:28:57;96175.44;;;9.38;50.80
42001;BME280;27689;48.390;10.856;2023-03-01T13:34:40;96181.91;;;9.53;50.38
42001;BME280;27689;48.390;10.856;2023-03-01T13:37:31;96187.56;;;9.48;50.90
42001;BME280;27689;48.390;10.856;2023-03-01T13:43:26;96192.91;;;9.37;51.39
42001;BME280;27689;48.390;10.856;2023-03-01T13:46:16;96194.19;;;9.33;51.16
42001;BME280;27689;48.390;10.856;2023-03-01T13:49:01;96202.72;;;8.36;51.51
42001;BME280;27689;48.390;10.856;2023-03-01T13:51:49;96191.56;;;8.64;53.00
42001;BME280;27689;48.390;10.856;2023-03-01T13:54:33;96197.50;;;8.76;52.09
42001;BME280;27689;48.390;10.856;2023-03-01T13:57:21;96195.44;;;8.79;52.61
42001;BME280;27689;48.390;10.856;2023-03-01T14:00:36;96198.97;;;8.29;52.21
42001;BME280;27689;48.390;10.856;2023-03-01T14:03:20;96193.31;;;8.24;52.41
42001;BME280;27689;48.390;10.856;2023-03-01T14:06:14;96207.44;;;8.21;53.88
42001;BME280;27689;48.390;10.856;2023-03-01T14:09:24;96201.81;;;7.95;54.67
42001;BME280;27689;48.390;10.856;2023-03-01T14:12:44;96194.13;;;8.24;54.85
42001;BME280;27689;48.390;10.856;2023-03-01T14:15:50;96182.09;;;8.33;55.52
42001;BME280;27689;48.390;10.856;2023-03-01T14:18:51;96189.16;;;8.21;54.08
42001;BME280;27689;48.390;10.856;2023-03-01T14:21:37;96189.13;;;8.11;54.50
42001;BME280;27689;48.390;10.856;2023-03-01T14:24:22;96188.44;;;8.09;54.91
42001;BME280;27689;48.390;10.856;2023-03-01T14:27:15;96189.13;;;8.11;55.38
42001;BME280;27689;48.390;10.856;2023-03-01T14:30:04;96191.22;;;8.18;55.12
42001;BME280;27689;48.390;10.856;2023-03-01T14:32:58;96175.84;;;8.14;55.78
42001;BME280;27689;48.390;10.856;2023-03-01T14:35:42;96178.16;;;8.18;55.64
42001;BME280;27689;48.390;10.856;2023-03-01T14:38:40;96165.16;;;7.97;55.15
42001;BME280;27689;48.390;10.856;2023-03-01T14:41:27;96160.06;;;7.95;55.95
42001;BME280;27689;48.390;10.856;2023-03-01T14:44:23;96165.09;;;7.87;56.50
42001;BME280;27689;48.390;10.856;2023-03-01T14:47:35;96165.91;;;7.88;55.64
42001;BME280;27689;48.390;10.856;2023-03-01T14:50:28;96166.34;;;7.83;56.63
42001;BME280;27689;48.390;10.856;2023-03-01T14:53:33;96158.25;;;7.65;55.88
42001;BME280;27689;48.390;10.856;2023-03-01T14:56:17;96159.34;;;7.63;55.59
42001;BME280;27689;48.390;10.856;2023-03-01T14:59:02;96167.09;;;7.53;57.05
42001;BME280;27689;48.390;10.856;2023-03-01T15:01:47;96161.88;;;7.53;57.22
42001;BME280;27689;48.390;10.856;2023-03-01T15:04:31;96143.19;;;7.48;57.14
42001;BME280;27689;48.390;10.856;2023-03-01T15:07:18;96145.16;;;7.56;57.56
42001;BME280;27689;48.390;10.856;2023-03-01T15:10:04;96133.47;;;7.50;57.59
42001;BME280;27689;48.390;10.856;2023-03-01T15:12:50;96118.31;;;7.44;58.21
42001;BME280;27689;48.390;10.856;2023-03-01T15:15:47;96125.38;;;7.32;57.97
42001;BME280;27689;48.390;10.856;2023-03-01T15:18:35;96105.88;;;7.27;58.66
42001;BME280;27689;48.390;10.856;2023-03-01T15:21:28;96110.19;;;7.37;57.27
42001;BME280;27689;48.390;10.856;2023-03-01T15:24:19;96102.97;;;7.41;57.09
42001;BME280;27689;48.390;10.856;2023-03-01T15:27:04;96105.56;;;7.20;58.11
42001;BME280;27689;48.390;10.856;2023-03-01T15:29:54;96124.81;;;7.08;58.78
42001;BME280;27689;48.390;10.856;2023-03-01T15:32:39;96122.31;;;7.06;59.27
42001;BME280;27689;48.390;10.856;2023-03-01T15:35:56;96125.16;;;7.03;59.37
42001;BME280;27689;48.390;10.856;2023-03-01T15:38:55;96128.53;;;6.94;60.33
42001;BME280;27689;48.390;10.856;2023-03-01T15:41:47;96135.38;;;6.95;59.97
42001;BME280;27689;48.390;10.856;2023-03-01T15:44:35;96134.91;;;6.90;60.77
42001;BME280;27689;48.390;10.856;2023-03-01T15:47:25;96122.97;;;6.88;60.90
42001;BME280;27689;48.390;10.856;2023-03-01T15:50:36;96140.47;;;6.97;60.28
42001;BME280;27689;48.390;10.856;2023-03-01T15:53:24;96136.03;;;6.77;60.99
42001;BME280;27689;48.390;10.856;2023-03-01T15:56:08;96140.66;;;6.73;61.36
42001;BME280;27689;48.390;10.856;2023-03-01T15:58:52;96149.53;;;6.70;61.74
42001;BME280;27689;48.390;10.856;2023-03-01T16:01:36;96135.38;;;6.63;61.79
42001;BME280;27689;48.390;10.856;2023-03-01T16:04:23;96137.03;;;6.64;61.98